sensor_id;sensor_type;location;lat;lon;timestamp;P1;durP1;ratioP1;P2;durP2;ratioP2
757;SDS011;363;48.764;9.172;2023-01-25T00:00:16;23.50;;;16.13;;
757;SDS011;363;48.764;9.172;2023-01-25T00:02:41;22.27;;;15.30;;
757;SDS011;363;48.764;9.172;2023-01-25T00:05:07;22.10;;;15.77;;
757;SDS011;363;48.764;9.172;2023-01-25T00:07:33;21.20;;;15.00;;
757;SDS011;363;48.764;9.172;2023-01-25T00:09:58;23.73;;;16.20;;
757;SDS011;363;48.764;9.172;2023-01-25T00:12:24;22.97;;;15.67;;
757;SDS011;363;48.764;9.172;2023-01-25T00:14:49;22.00;;;15.60;;
757;SDS011;363;48.764;9.172;2023-01-25T00:17:15;22.67;;;16.97;;
757;SDS011;363;48.764;9.172;2023-01-25T00:19:40;22.07;;;15.37;;
757;SDS011;363;48.764;9.172;2023-01-25T00:22:06;20.83;;;14.87;;
757;SDS011;363;48.764;9.172;2023-01-25T00:24:31;19.10;;;14.80;;
757;SDS011;363;48.764;9.172;2023-01-25T00:26:57;20.50;;;14.80;;
757;SDS011;363;48.764;9.172;2023-01-25T00:29:23;24.27;;;15.60;;
757;SDS011;363;48.764;9.172;2023-01-25T00:31:53;22.20;;;16.50;;
757;SDS011;363;48.764;9.172;2023-01-25T00:37:00;20.85;;;15.50;;
757;SDS011;363;48.764;9.172;2023-01-25T00:39:34;25.15;;;16.02;;
757;SDS011;363;48.764;9.172;2023-01-25T00:42:00;22.07;;;14.30;;
757;SDS011;363;48.764;9.172;2023-01-25T00:44:26;22.40;;;15.03;;
757;SDS011;363;48.764;9.172;2023-01-25T00:46:51;22.43;;;15.50;;
757;SDS011;363;48.764;9.172;2023-01-25T00:49:19;20.43;;;15.67;;
757;SDS011;363;48.764;9.172;2023-01-25T00:51:49;23.52;;;16.20;;
757;SDS011;363;48.764;9.172;2023-01-25T00:54:16;23.45;;;16.45;;
757;SDS011;363;48.764;9.172;2023-01-25T00:56:42;18.25;;;13.60;;
757;SDS011;363;48.764;9.172;2023-01-25T00:59:09;23.88;;;15.75;;
757;SDS011;363;48.764;9.172;2023-01-25T01:01:35;21.15;;;14.45;;
757;SDS011;363;48.764;9.172;2023-01-25T01:04:01;18.97;;;14.33;;
757;SDS011;363;48.764;9.172;2023-01-25T01:06:26;20.83;;;14.80;;
757;SDS011;363;48.764;9.172;2023-01-25T01:08:52;21.40;;;14.90;;
757;SDS011;363;48.764;9.172;2023-01-25T01:11:18;19.23;;;12.60;;
757;SDS011;363;48.764;9.172;2023-01-25T01:13:43;21.00;;;14.23;;
757;SDS011;363;48.764;9.172;2023-01-25T01:16:10;20.33;;;14.87;;
757;SDS011;363;48.764;9.172;2023-01-25T01:18:38;21.95;;;14.18;;
757;SDS011;363;48.764;9.172;2023-01-25T01:21:06;20.83;;;14.55;;
757;SDS011;363;48.764;9.172;2023-01-25T01:23:34;20.48;;;14.52;;
757;SDS011;363;48.764;9.172;2023-01-25T01:26:04;19.67;;;13.95;;
757;SDS011;363;48.764;9.172;2023-01-25T01:28:32;23.48;;;15.23;;
757;SDS011;363;48.764;9.172;2023-01-25T01:30:59;20.25;;;14.38;;
757;SDS011;363;48.764;9.172;2023-01-25T01:33:26;20.42;;;14.35;;
757;SDS011;363;48.764;9.172;2023-01-25T01:35:51;23.00;;;14.37;;
757;SDS011;363;48.764;9.172;2023-01-25T01:38:17;25.20;;;15.53;;
757;SDS011;363;48.764;9.172;2023-01-25T01:40:46;21.13;;;14.87;;
757;SDS011;363;48.764;9.172;2023-01-25T01:43:19;20.67;;;14.43;;
757;SDS011;363;48.764;9.172;2023-01-25T01:53:50;18.83;;;13.18;;
757;SDS011;363;48.764;9.172;2023-01-25T01:56:25;18.67;;;14.60;;
757;SDS011;363;48.764;9.172;2023-01-25T01:58:55;19.65;;;14.50;;
757;SDS011;363;48.764;9.172;2023-01-25T02:01:23;20.33;;;14.60;;
757;SDS011;363;48.764;9.172;2023-01-25T02:03:48;18.20;;;13.70;;
757;SDS011;363;48.764;9.172;2023-01-25T02:06:19;22.50;;;14.30;;
757;SDS011;363;48.764;9.172;2023-01-25T02:08:55;21.23;;;14.35;;
757;SDS011;363;48.764;9.172;2023-01-25T02:11:21;18.95;;;13.60;;
757;SDS011;363;48.764;9.172;2023-01-25T02:13:49;18.45;;;13.90;;
757;SDS011;363;48.764;9.172;2023-01-25T02:16:18;20.23;;;13.50;;
757;SDS011;363;48.764;9.172;2023-01-25T02:18:48;20.45;;;14.07;;
757;SDS011;363;48.764;9.172;2023-01-25T02:21:13;20.50;;;14.97;;
757;SDS011;363;48.764;9.172;2023-01-25T02:23:53;23.37;;;13.60;;
757;SDS011;363;48.764;9.172;2023-01-25T02:26:21;17.63;;;13.30;;
757;SDS011;363;48.764;9.172;2023-01-25T02:28:48;18.77;;;12.55;;
757;SDS011;363;48.764;9.172;2023-01-25T02:31:19;20.08;;;13.68;;
757;SDS011;363;48.764;9.172;2023-01-25T02:33:44;17.00;;;12.97;;
757;SDS011;363;48.764;9.172;2023-01-25T02:38:40;18.20;;;13.37;;
757;SDS011;363;48.764;9.172;2023-01-25T02:41:11;19.67;;;13.45;;
757;SDS011;363;48.764;9.172;2023-01-25T02:43:45;17.70;;;12.65;;
757;SDS011;363;48.764;9.172;2023-01-25T02:48:36;18.07;;;12.97;;
757;SDS011;363;48.764;9.172;2023-01-25T02:51:02;20.10;;;12.97;;
757;SDS011;363;48.764;9.172;2023-01-25T02:53:31;20.00;;;13.70;;
757;SDS011;363;48.764;9.172;2023-01-25T02:55:56;21.47;;;13.77;;
757;SDS011;363;48.764;9.172;2023-01-25T02:58:22;19.50;;;14.10;;
757;SDS011;363;48.764;9.172;2023-01-25T03:00:48;22.30;;;13.77;;
757;SDS011;363;48.764;9.172;2023-01-25T03:03:13;19.10;;;13.33;;
757;SDS011;363;48.764;9.172;2023-01-25T03:05:39;21.40;;;13.30;;
757;SDS011;363;48.764;9.172;2023-01-25T03:08:04;20.80;;;13.47;;
757;SDS011;363;48.764;9.172;2023-01-25T03:10:30;20.83;;;15.30;;
757;SDS011;363;48.764;9.172;2023-01-25T03:12:56;19.87;;;13.70;;
757;SDS011;363;48.764;9.172;2023-01-25T03:15:21;18.87;;;13.57;;
757;SDS011;363;48.764;9.172;2023-01-25T03:17:47;18.33;;;13.20;;
757;SDS011;363;48.764;9.172;2023-01-25T03:20:13;22.73;;;15.07;;
757;SDS011;363;48.764;9.172;2023-01-25T03:22:38;17.53;;;13.27;;
757;SDS011;363;48.764;9.172;2023-01-25T03:25:04;21.10;;;13.97;;
757;SDS011;363;48.764;9.172;2023-01-25T03:27:30;21.40;;;15.00;;
757;SDS011;363;48.764;9.172;2023-01-25T03:29:56;19.77;;;13.73;;
757;SDS011;363;48.764;9.172;2023-01-25T03:32:21;20.73;;;13.23;;
757;SDS011;363;48.764;9.172;2023-01-25T03:34:47;20.83;;;13.20;;
757;SDS011;363;48.764;9.172;2023-01-25T03:37:12;17.73;;;12.10;;
757;SDS011;363;48.764;9.172;2023-01-25T03:39:38;17.77;;;12.83;;
757;SDS011;363;48.764;9.172;2023-01-25T03:42:04;19.97;;;13.37;;
757;SDS011;363;48.764;9.172;2023-01-25T03:44:29;17.50;;;12.60;;
757;SDS011;363;48.764;9.172;2023-01-25T03:46:55;21.67;;;13.93;;
757;SDS011;363;48.764;9.172;2023-01-25T03:49:21;19.87;;;13.10;;
757;SDS011;363;48.764;9.172;2023-01-25T03:51:46;18.80;;;15.40;;
757;SDS011;363;48.764;9.172;2023-01-25T03:54:12;18.40;;;13.13;;
757;SDS011;363;48.764;9.172;2023-01-25T03:56:38;16.50;;;11.90;;
757;SDS011;363;48.764;9.172;2023-01-25T03:59:03;16.77;;;11.80;;
757;SDS011;363;48.764;9.172;2023-01-25T04:01:29;15.82;;;11.30;;
757;SDS011;363;48.764;9.172;2023-01-25T04:03:55;15.70;;;12.10;;
757;SDS011;363;48.764;9.172;2023-01-25T04:06:21;17.73;;;12.83;;
757;SDS011;363;48.764;9.172;2023-01-25T04:08:46;17.70;;;12.80;;
757;SDS011;363;48.764;9.172;2023-01-25T04:11:12;17.37;;;11.03;;
757;SDS011;363;48.764;9.172;2023-01-25T04:13:38;13.30;;;11.20;;
757;SDS011;363;48.764;9.172;2023-01-25T04:16:07;16.58;;;12.35;;
757;SDS011;363;48.764;9.172;2023-01-25T04:18:35;19.15;;;11.68;;
757;SDS011;363;48.764;9.172;2023-01-25T04:21:01;17.50;;;11.60;;
757;SDS011;363;48.764;9.172;2023-01-25T04:23:27;18.10;;;11.43;;
757;SDS011;363;48.764;9.172;2023-01-25T04:25:53;19.10;;;12.87;;
757;SDS011;363;48.764;9.172;2023-01-25T04:28:23;17.30;;;11.75;;
757;SDS011;363;48.764;9.172;2023-01-25T04:30:49;17.35;;;12.45;;
757;SDS011;363;48.764;9.172;2023-01-25T04:33:15;14.93;;;11.20;;
757;SDS011;363;48.764;9.172;2023-01-25T04:35:41;15.30;;;11.23;;
757;SDS011;363;48.764;9.172;2023-01-25T04:38:08;15.02;;;11.80;;
757;SDS011;363;48.764;9.172;2023-01-25T04:40:34;16.48;;;10.85;;
757;SDS011;363;48.764;9.172;2023-01-25T04:43:00;18.33;;;12.53;;
757;SDS011;363;48.764;9.172;2023-01-25T04:45:26;16.80;;;11.77;;
757;SDS011;363;48.764;9.172;2023-01-25T04:47:56;15.73;;;11.17;;
757;SDS011;363;48.764;9.172;2023-01-25T04:50:22;15.07;;;11.32;;
757;SDS011;363;48.764;9.172;2023-01-25T04:52:48;13.75;;;11.48;;
757;SDS011;363;48.764;9.172;2023-01-25T04:55:14;14.97;;;10.70;;
757;SDS011;363;48.764;9.172;2023-01-25T04:57:40;14.70;;;11.33;;
757;SDS011;363;48.764;9.172;2023-01-25T05:00:06;13.30;;;9.77;;
757;SDS011;363;48.764;9.172;2023-01-25T05:02:32;12.80;;;9.55;;
757;SDS011;363;48.764;9.172;2023-01-25T05:04:58;12.93;;;9.40;;
757;SDS011;363;48.764;9.172;2023-01-25T05:07:23;13.60;;;9.63;;
757;SDS011;363;48.764;9.172;2023-01-25T05:09:49;12.93;;;9.50;;
757;SDS011;363;48.764;9.172;2023-01-25T05:12:14;15.33;;;9.87;;
757;SDS011;363;48.764;9.172;2023-01-25T05:14:40;13.27;;;9.03;;
757;SDS011;363;48.764;9.172;2023-01-25T05:17:06;14.13;;;10.80;;
757;SDS011;363;48.764;9.172;2023-01-25T05:19:32;14.95;;;10.35;;
757;SDS011;363;48.764;9.172;2023-01-25T05:21:59;12.95;;;9.65;;
757;SDS011;363;48.764;9.172;2023-01-25T05:24:29;14.38;;;10.43;;
757;SDS011;363;48.764;9.172;2023-01-25T05:26:56;14.27;;;9.70;;
757;SDS011;363;48.764;9.172;2023-01-25T05:29:26;12.18;;;9.30;;
757;SDS011;363;48.764;9.172;2023-01-25T05:31:52;12.52;;;9.27;;
757;SDS011;363;48.764;9.172;2023-01-25T05:34:18;15.23;;;10.43;;
757;SDS011;363;48.764;9.172;2023-01-25T05:36:43;15.67;;;9.90;;
757;SDS011;363;48.764;9.172;2023-01-25T05:39:09;12.57;;;9.47;;
757;SDS011;363;48.764;9.172;2023-01-25T05:41:35;12.27;;;9.67;;
757;SDS011;363;48.764;9.172;2023-01-25T05:44:00;12.93;;;9.77;;
757;SDS011;363;48.764;9.172;2023-01-25T05:46:26;12.60;;;9.53;;
757;SDS011;363;48.764;9.172;2023-01-25T05:48:52;12.95;;;9.57;;
757;SDS011;363;48.764;9.172;2023-01-25T05:51:18;12.90;;;9.30;;
757;SDS011;363;48.764;9.172;2023-01-25T05:53:44;12.27;;;9.23;;
757;SDS011;363;48.764;9.172;2023-01-25T05:56:09;14.17;;;10.00;;
757;SDS011;363;48.764;9.172;2023-01-25T05:58:35;13.33;;;9.30;;
757;SDS011;363;48.764;9.172;2023-01-25T06:01:02;13.63;;;9.10;;
757;SDS011;363;48.764;9.172;2023-01-25T06:03:29;14.02;;;9.20;;
757;SDS011;363;48.764;9.172;2023-01-25T06:05:56;12.90;;;9.80;;
757;SDS011;363;48.764;9.172;2023-01-25T06:08:22;11.27;;;9.60;;
757;SDS011;363;48.764;9.172;2023-01-25T06:10:48;12.97;;;9.80;;
757;SDS011;363;48.764;9.172;2023-01-25T06:13:14;13.77;;;9.00;;
757;SDS011;363;48.764;9.172;2023-01-25T06:15:40;12.20;;;8.75;;
757;SDS011;363;48.764;9.172;2023-01-25T06:18:06;13.83;;;9.73;;
757;SDS011;363;48.764;9.172;2023-01-25T06:20:32;12.00;;;8.57;;
757;SDS011;363;48.764;9.172;2023-01-25T06:22:58;12.65;;;9.07;;
757;SDS011;363;48.764;9.172;2023-01-25T06:25:24;11.77;;;8.50;;
757;SDS011;363;48.764;9.172;2023-01-25T06:27:49;15.70;;;10.07;;
757;SDS011;363;48.764;9.172;2023-01-25T06:30:15;13.57;;;9.13;;
757;SDS011;363;48.764;9.172;2023-01-25T06:32:41;11.57;;;8.93;;
757;SDS011;363;48.764;9.172;2023-01-25T06:35:06;11.40;;;8.67;;
757;SDS011;363;48.764;9.172;2023-01-25T06:37:32;12.15;;;9.55;;
757;SDS011;363;48.764;9.172;2023-01-25T06:39:58;13.40;;;9.30;;
757;SDS011;363;48.764;9.172;2023-01-25T06:42:23;12.50;;;9.10;;
757;SDS011;363;48.764;9.172;2023-01-25T06:44:49;12.70;;;9.73;;
757;SDS011;363;48.764;9.172;2023-01-25T06:47:15;14.50;;;10.23;;
757;SDS011;363;48.764;9.172;2023-01-25T06:49:40;12.43;;;9.30;;
757;SDS011;363;48.764;9.172;2023-01-25T06:52:06;13.77;;;9.57;;
757;SDS011;363;48.764;9.172;2023-01-25T06:54:32;15.57;;;10.60;;
757;SDS011;363;48.764;9.172;2023-01-25T06:56:58;13.80;;;9.20;;
757;SDS011;363;48.764;9.172;2023-01-25T06:59:23;14.40;;;9.67;;
757;SDS011;363;48.764;9.172;2023-01-25T07:01:49;12.83;;;9.00;;
757;SDS011;363;48.764;9.172;2023-01-25T07:04:14;14.13;;;10.07;;
757;SDS011;363;48.764;9.172;2023-01-25T07:06:40;14.33;;;9.67;;
757;SDS011;363;48.764;9.172;2023-01-25T07:09:07;14.70;;;10.50;;
757;SDS011;363;48.764;9.172;2023-01-25T07:11:34;12.73;;;10.27;;
757;SDS011;363;48.764;9.172;2023-01-25T07:14:01;12.10;;;8.73;;
757;SDS011;363;48.764;9.172;2023-01-25T07:16:27;12.80;;;9.80;;
757;SDS011;363;48.764;9.172;2023-01-25T07:18:53;15.57;;;11.70;;
757;SDS011;363;48.764;9.172;2023-01-25T07:21:20;13.70;;;10.55;;
757;SDS011;363;48.764;9.172;2023-01-25T07:23:50;12.18;;;9.35;;
757;SDS011;363;48.764;9.172;2023-01-25T07:26:17;13.35;;;8.90;;
757;SDS011;363;48.764;9.172;2023-01-25T07:28:45;12.80;;;8.73;;
757;SDS011;363;48.764;9.172;2023-01-25T07:31:11;12.20;;;9.25;;
757;SDS011;363;48.764;9.172;2023-01-25T07:33:37;14.60;;;10.00;;
757;SDS011;363;48.764;9.172;2023-01-25T07:36:03;15.53;;;10.53;;
757;SDS011;363;48.764;9.172;2023-01-25T07:38:30;14.38;;;9.43;;
757;SDS011;363;48.764;9.172;2023-01-25T07:40:56;12.33;;;8.73;;
757;SDS011;363;48.764;9.172;2023-01-25T07:43:22;11.53;;;9.40;;
757;SDS011;363;48.764;9.172;2023-01-25T07:45:47;12.67;;;8.63;;
757;SDS011;363;48.764;9.172;2023-01-25T07:48:13;12.77;;;9.23;;
757;SDS011;363;48.764;9.172;2023-01-25T07:50:40;14.93;;;11.25;;
757;SDS011;363;48.764;9.172;2023-01-25T07:53:06;12.40;;;9.00;;
757;SDS011;363;48.764;9.172;2023-01-25T07:55:32;13.10;;;9.45;;
757;SDS011;363;48.764;9.172;2023-01-25T07:57:58;13.88;;;9.70;;
757;SDS011;363;48.764;9.172;2023-01-25T08:00:24;12.48;;;8.88;;
757;SDS011;363;48.764;9.172;2023-01-25T08:02:51;11.63;;;8.75;;
757;SDS011;363;48.764;9.172;2023-01-25T08:05:17;12.25;;;9.23;;
757;SDS011;363;48.764;9.172;2023-01-25T08:07:43;10.85;;;8.48;;
757;SDS011;363;48.764;9.172;2023-01-25T08:10:09;14.35;;;9.88;;
757;SDS011;363;48.764;9.172;2023-01-25T08:12:35;11.33;;;9.47;;
757;SDS011;363;48.764;9.172;2023-01-25T08:15:02;11.27;;;8.93;;
757;SDS011;363;48.764;9.172;2023-01-25T08:17:28;15.07;;;10.90;;
757;SDS011;363;48.764;9.172;2023-01-25T08:19:56;15.32;;;9.95;;
757;SDS011;363;48.764;9.172;2023-01-25T08:22:23;11.77;;;9.00;;
757;SDS011;363;48.764;9.172;2023-01-25T08:24:49;14.07;;;9.87;;
757;SDS011;363;48.764;9.172;2023-01-25T08:27:14;12.33;;;8.67;;
757;SDS011;363;48.764;9.172;2023-01-25T08:29:40;11.30;;;9.43;;
757;SDS011;363;48.764;9.172;2023-01-25T08:32:06;13.13;;;10.10;;
757;SDS011;363;48.764;9.172;2023-01-25T08:34:32;11.40;;;9.30;;
757;SDS011;363;48.764;9.172;2023-01-25T08:36:58;13.35;;;9.85;;
757;SDS011;363;48.764;9.172;2023-01-25T08:39:24;12.80;;;8.87;;
757;SDS011;363;48.764;9.172;2023-01-25T08:41:50;13.85;;;9.48;;
757;SDS011;363;48.764;9.172;2023-01-25T08:44:15;12.57;;;8.67;;
757;SDS011;363;48.764;9.172;2023-01-25T08:46:46;13.88;;;10.55;;
757;SDS011;363;48.764;9.172;2023-01-25T08:49:12;12.87;;;9.97;;
757;SDS011;363;48.764;9.172;2023-01-25T08:51:37;12.87;;;9.53;;
757;SDS011;363;48.764;9.172;2023-01-25T08:54:04;13.18;;;10.10;;
757;SDS011;363;48.764;9.172;2023-01-25T08:56:31;11.15;;;8.57;;
757;SDS011;363;48.764;9.172;2023-01-25T08:58:56;12.00;;;9.40;;
757;SDS011;363;48.764;9.172;2023-01-25T09:01:22;14.63;;;9.60;;
757;SDS011;363;48.764;9.172;2023-01-25T09:03:48;11.80;;;9.20;;
757;SDS011;363;48.764;9.172;2023-01-25T09:06:15;12.48;;;9.75;;
757;SDS011;363;48.764;9.172;2023-01-25T09:08:41;12.85;;;9.60;;
757;SDS011;363;48.764;9.172;2023-01-25T09:11:14;13.82;;;10.50;;
757;SDS011;363;48.764;9.172;2023-01-25T09:13:41;13.80;;;10.32;;
757;SDS011;363;48.764;9.172;2023-01-25T09:16:08;14.55;;;10.07;;
757;SDS011;363;48.764;9.172;2023-01-25T09:18:40;14.73;;;10.43;;
757;SDS011;363;48.764;9.172;2023-01-25T09:21:11;13.88;;;9.73;;
757;SDS011;363;48.764;9.172;2023-01-25T09:23:38;12.15;;;9.70;;
757;SDS011;363;48.764;9.172;2023-01-25T09:26:04;13.43;;;9.37;;
757;SDS011;363;48.764;9.172;2023-01-25T09:28:31;15.48;;;9.98;;
757;SDS011;363;48.764;9.172;2023-01-25T09:30:58;13.98;;;9.88;;
757;SDS011;363;48.764;9.172;2023-01-25T09:33:35;12.43;;;8.90;;
757;SDS011;363;48.764;9.172;2023-01-25T09:36:03;12.10;;;9.18;;
757;SDS011;363;48.764;9.172;2023-01-25T09:38:30;14.68;;;9.90;;
757;SDS011;363;48.764;9.172;2023-01-25T09:43:31;12.50;;;9.73;;
757;SDS011;363;48.764;9.172;2023-01-25T09:45:58;11.80;;;9.10;;
757;SDS011;363;48.764;9.172;2023-01-25T09:48:34;15.38;;;11.68;;
757;SDS011;363;48.764;9.172;2023-01-25T09:51:25;17.08;;;9.70;;
757;SDS011;363;48.764;9.172;2023-01-25T09:54:26;12.48;;;9.45;;
757;SDS011;363;48.764;9.172;2023-01-25T09:56:54;14.48;;;9.90;;
757;SDS011;363;48.764;9.172;2023-01-25T09:59:21;11.10;;;8.85;;
757;SDS011;363;48.764;9.172;2023-01-25T10:01:52;11.48;;;8.18;;
757;SDS011;363;48.764;9.172;2023-01-25T10:04:36;13.70;;;11.02;;
757;SDS011;363;48.764;9.172;2023-01-25T10:07:40;11.73;;;9.90;;
757;SDS011;363;48.764;9.172;2023-01-25T10:10:04;11.50;;;9.50;;
757;SDS011;363;48.764;9.172;2023-01-25T10:12:35;11.82;;;9.32;;
757;SDS011;363;48.764;9.172;2023-01-25T10:15:19;13.80;;;9.18;;
757;SDS011;363;48.764;9.172;2023-01-25T10:17:50;12.13;;;9.43;;
757;SDS011;363;48.764;9.172;2023-01-25T10:28:47;17.48;;;11.50;;
757;SDS011;363;48.764;9.172;2023-01-25T10:31:36;13.20;;;10.45;;
757;SDS011;363;48.764;9.172;2023-01-25T10:34:08;13.40;;;10.40;;
757;SDS011;363;48.764;9.172;2023-01-25T10:36:46;13.13;;;10.05;;
757;SDS011;363;48.764;9.172;2023-01-25T10:39:14;12.13;;;9.38;;
757;SDS011;363;48.764;9.172;2023-01-25T10:41:42;15.20;;;11.55;;
757;SDS011;363;48.764;9.172;2023-01-25T10:44:14;13.20;;;9.60;;
757;SDS011;363;48.764;9.172;2023-01-25T10:46:56;14.50;;;11.15;;
757;SDS011;363;48.764;9.172;2023-01-25T10:57:42;12.10;;;9.95;;
757;SDS011;363;48.764;9.172;2023-01-25T11:00:25;12.10;;;9.52;;
757;SDS011;363;48.764;9.172;2023-01-25T11:03:05;15.10;;;11.35;;
757;SDS011;363;48.764;9.172;2023-01-25T11:05:43;13.82;;;10.48;;
757;SDS011;363;48.764;9.172;2023-01-25T11:08:24;12.45;;;9.95;;
757;SDS011;363;48.764;9.172;2023-01-25T11:10:53;15.05;;;10.05;;
757;SDS011;363;48.764;9.172;2023-01-25T11:13:26;13.87;;;10.50;;
757;SDS011;363;48.764;9.172;2023-01-25T11:18:25;12.10;;;9.60;;
757;SDS011;363;48.764;9.172;2023-01-25T11:21:12;12.60;;;10.15;;
757;SDS011;363;48.764;9.172;2023-01-25T11:23:42;13.10;;;10.32;;
757;SDS011;363;48.764;9.172;2023-01-25T11:26:15;14.82;;;11.70;;
757;SDS011;363;48.764;9.172;2023-01-25T11:28:43;16.17;;;11.05;;
757;SDS011;363;48.764;9.172;2023-01-25T11:31:10;15.20;;;9.82;;
757;SDS011;363;48.764;9.172;2023-01-25T11:33:37;15.75;;;11.38;;
757;SDS011;363;48.764;9.172;2023-01-25T11:38:33;13.13;;;10.50;;
757;SDS011;363;48.764;9.172;2023-01-25T11:41:15;14.90;;;11.35;;
757;SDS011;363;48.764;9.172;2023-01-25T11:46:58;15.40;;;11.88;;
757;SDS011;363;48.764;9.172;2023-01-25T11:52:57;14.98;;;10.70;;
757;SDS011;363;48.764;9.172;2023-01-25T11:56:40;15.50;;;12.20;;
757;SDS011;363;48.764;9.172;2023-01-25T12:04:56;18.65;;;13.35;;
757;SDS011;363;48.764;9.172;2023-01-25T12:24:50;14.15;;;10.95;;
757;SDS011;363;48.764;9.172;2023-01-25T12:27:20;18.50;;;12.70;;
757;SDS011;363;48.764;9.172;2023-01-25T12:29:55;16.17;;;12.05;;
757;SDS011;363;48.764;9.172;2023-01-25T12:32:32;15.80;;;11.02;;
757;SDS011;363;48.764;9.172;2023-01-25T12:37:55;17.13;;;12.18;;
757;SDS011;363;48.764;9.172;2023-01-25T12:43:23;17.95;;;13.02;;
757;SDS011;363;48.764;9.172;2023-01-25T12:45:51;17.73;;;12.88;;
757;SDS011;363;48.764;9.172;2023-01-25T12:48:20;15.35;;;11.85;;
757;SDS011;363;48.764;9.172;2023-01-25T12:50:51;17.13;;;13.05;;
757;SDS011;363;48.764;9.172;2023-01-25T12:53:20;17.65;;;13.38;;
757;SDS011;363;48.764;9.172;2023-01-25T12:55:48;16.30;;;13.05;;
757;SDS011;363;48.764;9.172;2023-01-25T13:01:04;16.20;;;12.10;;
757;SDS011;363;48.764;9.172;2023-01-25T13:09:52;15.80;;;12.27;;
757;SDS011;363;48.764;9.172;2023-01-25T13:12:27;18.60;;;13.80;;
757;SDS011;363;48.764;9.172;2023-01-25T13:14:52;21.83;;;14.20;;
757;SDS011;363;48.764;9.172;2023-01-25T13:19:45;17.98;;;13.23;;
757;SDS011;363;48.764;9.172;2023-01-25T13:22:11;18.75;;;13.00;;
757;SDS011;363;48.764;9.172;2023-01-25T13:27:30;19.25;;;15.02;;
757;SDS011;363;48.764;9.172;2023-01-25T13:40:41;16.33;;;11.63;;
757;SDS011;363;48.764;9.172;2023-01-25T13:43:19;19.60;;;14.17;;
757;SDS011;363;48.764;9.172;2023-01-25T13:45:49;17.67;;;12.93;;
757;SDS011;363;48.764;9.172;2023-01-25T13:48:20;22.05;;;13.70;;
757;SDS011;363;48.764;9.172;2023-01-25T13:50:50;19.88;;;14.65;;
757;SDS011;363;48.764;9.172;2023-01-25T13:53:20;17.83;;;12.70;;
757;SDS011;363;48.764;9.172;2023-01-25T13:58:28;16.88;;;12.55;;
757;SDS011;363;48.764;9.172;2023-01-25T14:00:57;18.00;;;13.18;;
757;SDS011;363;48.764;9.172;2023-01-25T14:03:29;23.42;;;14.13;;
757;SDS011;363;48.764;9.172;2023-01-25T14:06:00;17.85;;;13.52;;
757;SDS011;363;48.764;9.172;2023-01-25T14:08:28;18.27;;;13.48;;
757;SDS011;363;48.764;9.172;2023-01-25T14:10:55;19.17;;;14.07;;
757;SDS011;363;48.764;9.172;2023-01-25T14:13:21;18.50;;;12.38;;
757;SDS011;363;48.764;9.172;2023-01-25T14:16:30;18.88;;;14.32;;
757;SDS011;363;48.764;9.172;2023-01-25T14:18:36;22.77;;;14.82;;
757;SDS011;363;48.764;9.172;2023-01-25T14:21:14;19.73;;;14.23;;
757;SDS011;363;48.764;9.172;2023-01-25T14:23:45;19.00;;;13.15;;
757;SDS011;363;48.764;9.172;2023-01-25T14:28:52;21.13;;;12.77;;
757;SDS011;363;48.764;9.172;2023-01-25T14:31:27;17.88;;;13.07;;
757;SDS011;363;48.764;9.172;2023-01-25T14:33:59;19.15;;;13.20;;
757;SDS011;363;48.764;9.172;2023-01-25T14:36:28;17.55;;;13.50;;
757;SDS011;363;48.764;9.172;2023-01-25T14:38:58;18.60;;;12.70;;
757;SDS011;363;48.764;9.172;2023-01-25T14:41:28;18.83;;;13.52;;
757;SDS011;363;48.764;9.172;2023-01-25T14:44:03;18.20;;;13.73;;
757;SDS011;363;48.764;9.172;2023-01-25T14:46:35;19.48;;;14.38;;
757;SDS011;363;48.764;9.172;2023-01-25T14:49:05;19.83;;;12.98;;
757;SDS011;363;48.764;9.172;2023-01-25T14:54:19;19.15;;;14.00;;
757;SDS011;363;48.764;9.172;2023-01-25T14:56:57;16.98;;;12.85;;
757;SDS011;363;48.764;9.172;2023-01-25T15:02:25;22.80;;;15.57;;
757;SDS011;363;48.764;9.172;2023-01-25T15:10:22;21.83;;;13.75;;
757;SDS011;363;48.764;9.172;2023-01-25T15:15:25;19.25;;;13.93;;
757;SDS011;363;48.764;9.172;2023-01-25T15:17:53;19.67;;;13.27;;
757;SDS011;363;48.764;9.172;2023-01-25T15:20:36;22.80;;;14.95;;
757;SDS011;363;48.764;9.172;2023-01-25T15:28:17;21.08;;;14.60;;
757;SDS011;363;48.764;9.172;2023-01-25T15:30:43;23.13;;;15.40;;
757;SDS011;363;48.764;9.172;2023-01-25T15:33:27;24.47;;;15.37;;
757;SDS011;363;48.764;9.172;2023-01-25T15:35:54;22.52;;;14.30;;
757;SDS011;363;48.764;9.172;2023-01-25T15:38:21;18.27;;;13.93;;
757;SDS011;363;48.764;9.172;2023-01-25T15:40:48;21.13;;;14.38;;
757;SDS011;363;48.764;9.172;2023-01-25T15:43:14;22.37;;;15.40;;
757;SDS011;363;48.764;9.172;2023-01-25T15:45:41;21.90;;;15.55;;
757;SDS011;363;48.764;9.172;2023-01-25T15:48:12;24.48;;;15.60;;
757;SDS011;363;48.764;9.172;2023-01-25T15:50:40;20.02;;;14.15;;
757;SDS011;363;48.764;9.172;2023-01-25T15:53:10;22.02;;;15.07;;
757;SDS011;363;48.764;9.172;2023-01-25T15:55:40;20.77;;;14.60;;
757;SDS011;363;48.764;9.172;2023-01-25T15:58:09;18.77;;;13.65;;
757;SDS011;363;48.764;9.172;2023-01-25T16:00:41;23.38;;;13.73;;
757;SDS011;363;48.764;9.172;2023-01-25T16:03:08;23.17;;;14.88;;
757;SDS011;363;48.764;9.172;2023-01-25T16:17:29;27.25;;;16.58;;
757;SDS011;363;48.764;9.172;2023-01-25T16:19:55;24.53;;;15.37;;
757;SDS011;363;48.764;9.172;2023-01-25T16:22:20;24.90;;;16.70;;
757;SDS011;363;48.764;9.172;2023-01-25T16:24:46;22.47;;;14.87;;
757;SDS011;363;48.764;9.172;2023-01-25T16:27:15;24.10;;;16.47;;
757;SDS011;363;48.764;9.172;2023-01-25T16:29:46;21.33;;;14.63;;
757;SDS011;363;48.764;9.172;2023-01-25T16:32:12;22.47;;;15.10;;
757;SDS011;363;48.764;9.172;2023-01-25T16:34:38;23.63;;;15.33;;
757;SDS011;363;48.764;9.172;2023-01-25T16:37:03;22.03;;;15.90;;
757;SDS011;363;48.764;9.172;2023-01-25T16:39:29;21.60;;;14.30;;
757;SDS011;363;48.764;9.172;2023-01-25T16:41:56;19.55;;;13.23;;
757;SDS011;363;48.764;9.172;2023-01-25T16:44:22;26.00;;;15.25;;
757;SDS011;363;48.764;9.172;2023-01-25T16:46:47;18.20;;;14.10;;
757;SDS011;363;48.764;9.172;2023-01-25T16:49:15;23.35;;;13.70;;
757;SDS011;363;48.764;9.172;2023-01-25T16:51:45;18.15;;;12.45;;
757;SDS011;363;48.764;9.172;2023-01-25T16:54:12;22.85;;;16.65;;
757;SDS011;363;48.764;9.172;2023-01-25T16:56:38;19.23;;;13.70;;
757;SDS011;363;48.764;9.172;2023-01-25T16:59:04;22.07;;;14.53;;
757;SDS011;363;48.764;9.172;2023-01-25T17:01:30;18.30;;;12.70;;
757;SDS011;363;48.764;9.172;2023-01-25T17:03:56;21.48;;;12.95;;
757;SDS011;363;48.764;9.172;2023-01-25T17:06:24;23.10;;;14.15;;
757;SDS011;363;48.764;9.172;2023-01-25T17:08:51;30.95;;;18.98;;
757;SDS011;363;48.764;9.172;2023-01-25T17:11:20;21.42;;;14.45;;
757;SDS011;363;48.764;9.172;2023-01-25T17:13:53;23.52;;;15.63;;
757;SDS011;363;48.764;9.172;2023-01-25T17:16:21;19.98;;;13.57;;
757;SDS011;363;48.764;9.172;2023-01-25T17:18:52;20.58;;;14.13;;
757;SDS011;363;48.764;9.172;2023-01-25T17:21:22;17.92;;;12.63;;
757;SDS011;363;48.764;9.172;2023-01-25T17:23:47;17.52;;;12.75;;
757;SDS011;363;48.764;9.172;2023-01-25T17:26:14;19.63;;;13.07;;
757;SDS011;363;48.764;9.172;2023-01-25T17:28:41;21.13;;;14.38;;
757;SDS011;363;48.764;9.172;2023-01-25T17:31:18;17.67;;;12.38;;
757;SDS011;363;48.764;9.172;2023-01-25T17:33:51;19.98;;;14.00;;
757;SDS011;363;48.764;9.172;2023-01-25T17:36:17;22.73;;;15.38;;
757;SDS011;363;48.764;9.172;2023-01-25T17:38:44;18.85;;;13.65;;
757;SDS011;363;48.764;9.172;2023-01-25T17:41:11;21.25;;;13.77;;
757;SDS011;363;48.764;9.172;2023-01-25T17:43:38;20.27;;;13.95;;